sensor_id;sensor_type;location;lat;lon;timestamp;P1;durP1;ratioP1;P2;durP2;ratioP2
56381;SDS011;50261;51.150;4.470;2023-07-13T00:01:12;5.60;;;1.38;;
56381;SDS011;50261;51.150;4.470;2023-07-13T00:03:38;6.93;;;1.38;;
56381;SDS011;50261;51.150;4.470;2023-07-13T00:06:06;7.38;;;2.35;;
56381;SDS011;50261;51.150;4.470;2023-07-13T00:08:32;6.60;;;1.30;;
56381;SDS011;50261;51.150;4.470;2023-07-13T00:11:00;7.72;;;1.40;;
56381;SDS011;50261;51.150;4.470;2023-07-13T00:13:27;8.70;;;1.95;;
56381;SDS011;50261;51.150;4.470;2023-07-13T00:15:52;6.78;;;1.70;;
56381;SDS011;50261;51.150;4.470;2023-07-13T00:18:19;9.80;;;1.88;;
56381;SDS011;50261;51.150;4.470;2023-07-13T00:20:45;8.18;;;1.60;;
56381;SDS011;50261;51.150;4.470;2023-07-13T00:23:11;3.40;;;1.33;;
56381;SDS011;50261;51.150;4.470;2023-07-13T00:25:36;7.05;;;1.63;;
56381;SDS011;50261;51.150;4.470;2023-07-13T00:28:02;5.97;;;1.25;;
56381;SDS011;50261;51.150;4.470;2023-07-13T00:30:28;6.72;;;1.40;;
56381;SDS011;50261;51.150;4.470;2023-07-13T00:32:57;7.75;;;1.40;;
56381;SDS011;50261;51.150;4.470;2023-07-13T00:35:22;7.90;;;1.30;;
56381;SDS011;50261;51.150;4.470;2023-07-13T00:37:50;5.40;;;1.23;;
56381;SDS011;50261;51.150;4.470;2023-07-13T00:40:17;5.90;;;1.25;;
56381;SDS011;50261;51.150;4.470;2023-07-13T00:42:44;7.25;;;2.17;;
56381;SDS011;50261;51.150;4.470;2023-07-13T00:47:38;7.95;;;1.90;;
56381;SDS011;50261;51.150;4.470;2023-07-13T00:50:05;8.13;;;1.88;;
56381;SDS011;50261;51.150;4.470;2023-07-13T00:52:31;10.98;;;1.60;;
56381;SDS011;50261;51.150;4.470;2023-07-13T00:54:58;9.43;;;1.73;;
56381;SDS011;50261;51.150;4.470;2023-07-13T00:57:24;10.65;;;2.80;;
56381;SDS011;50261;51.150;4.470;2023-07-13T00:59:52;5.65;;;1.20;;
56381;SDS011;50261;51.150;4.470;2023-07-13T01:02:19;8.00;;;1.75;;
56381;SDS011;50261;51.150;4.470;2023-07-13T01:04:47;7.70;;;1.35;;
56381;SDS011;50261;51.150;4.470;2023-07-13T01:07:12;8.88;;;1.85;;
56381;SDS011;50261;51.150;4.470;2023-07-13T01:09:38;6.90;;;1.95;;
56381;SDS011;50261;51.150;4.470;2023-07-13T01:12:04;6.78;;;1.67;;
56381;SDS011;50261;51.150;4.470;2023-07-13T01:14:29;6.70;;;1.70;;
56381;SDS011;50261;51.150;4.470;2023-07-13T01:16:55;10.27;;;1.83;;
56381;SDS011;50261;51.150;4.470;2023-07-13T01:22:14;7.45;;;1.60;;
56381;SDS011;50261;51.150;4.470;2023-07-13T01:24:41;7.13;;;1.63;;
56381;SDS011;50261;51.150;4.470;2023-07-13T01:27:08;5.43;;;1.50;;
56381;SDS011;50261;51.150;4.470;2023-07-13T01:29:34;8.65;;;1.85;;
56381;SDS011;50261;51.150;4.470;2023-07-13T01:32:11;5.55;;;1.70;;
56381;SDS011;50261;51.150;4.470;2023-07-13T01:34:37;6.45;;;1.80;;
56381;SDS011;50261;51.150;4.470;2023-07-13T01:37:06;9.55;;;1.33;;
56381;SDS011;50261;51.150;4.470;2023-07-13T01:39:32;7.55;;;1.42;;
56381;SDS011;50261;51.150;4.470;2023-07-13T01:41:58;10.23;;;2.20;;
56381;SDS011;50261;51.150;4.470;2023-07-13T01:44:24;6.00;;;1.80;;
56381;SDS011;50261;51.150;4.470;2023-07-13T01:46:51;7.60;;;1.42;;
56381;SDS011;50261;51.150;4.470;2023-07-13T01:49:17;8.32;;;1.83;;
56381;SDS011;50261;51.150;4.470;2023-07-13T01:51:43;9.30;;;2.08;;
56381;SDS011;50261;51.150;4.470;2023-07-13T01:54:10;6.60;;;1.65;;
56381;SDS011;50261;51.150;4.470;2023-07-13T01:56:35;9.02;;;2.20;;
56381;SDS011;50261;51.150;4.470;2023-07-13T01:59:01;10.50;;;2.35;;
56381;SDS011;50261;51.150;4.470;2023-07-13T02:01:27;8.98;;;1.95;;
56381;SDS011;50261;51.150;4.470;2023-07-13T02:03:53;9.10;;;2.10;;
56381;SDS011;50261;51.150;4.470;2023-07-13T02:06:19;6.88;;;1.73;;
56381;SDS011;50261;51.150;4.470;2023-07-13T02:08:47;6.13;;;2.00;;
56381;SDS011;50261;51.150;4.470;2023-07-13T02:11:12;5.93;;;1.88;;
56381;SDS011;50261;51.150;4.470;2023-07-13T02:13:38;8.15;;;2.35;;
56381;SDS011;50261;51.150;4.470;2023-07-13T02:16:04;10.55;;;2.47;;
56381;SDS011;50261;51.150;4.470;2023-07-13T02:18:30;7.53;;;2.10;;
56381;SDS011;50261;51.150;4.470;2023-07-13T02:20:56;9.88;;;2.20;;
56381;SDS011;50261;51.150;4.470;2023-07-13T02:23:21;6.57;;;1.65;;
56381;SDS011;50261;51.150;4.470;2023-07-13T02:25:47;10.02;;;2.00;;
56381;SDS011;50261;51.150;4.470;2023-07-13T02:28:14;10.45;;;2.33;;
56381;SDS011;50261;51.150;4.470;2023-07-13T02:30:40;11.93;;;2.42;;
56381;SDS011;50261;51.150;4.470;2023-07-13T02:33:06;7.60;;;1.85;;
56381;SDS011;50261;51.150;4.470;2023-07-13T02:35:31;7.03;;;1.83;;
56381;SDS011;50261;51.150;4.470;2023-07-13T02:37:57;11.98;;;2.00;;
56381;SDS011;50261;51.150;4.470;2023-07-13T02:40:23;9.70;;;2.10;;
56381;SDS011;50261;51.150;4.470;2023-07-13T02:42:50;7.93;;;2.10;;
56381;SDS011;50261;51.150;4.470;2023-07-13T02:45:16;7.22;;;1.60;;
56381;SDS011;50261;51.150;4.470;2023-07-13T02:47:42;9.45;;;1.95;;
56381;SDS011;50261;51.150;4.470;2023-07-13T02:50:08;6.97;;;1.87;;
56381;SDS011;50261;51.150;4.470;2023-07-13T02:52:33;10.40;;;2.17;;
56381;SDS011;50261;51.150;4.470;2023-07-13T02:54:59;10.52;;;1.90;;
56381;SDS011;50261;51.150;4.470;2023-07-13T02:57:25;6.85;;;1.83;;
56381;SDS011;50261;51.150;4.470;2023-07-13T02:59:52;6.68;;;1.90;;
56381;SDS011;50261;51.150;4.470;2023-07-13T03:02:18;8.43;;;2.65;;
56381;SDS011;50261;51.150;4.470;2023-07-13T03:04:44;10.07;;;2.10;;
56381;SDS011;50261;51.150;4.470;2023-07-13T03:07:10;7.00;;;1.70;;
56381;SDS011;50261;51.150;4.470;2023-07-13T03:09:36;10.00;;;2.17;;
56381;SDS011;50261;51.150;4.470;2023-07-13T03:12:05;9.55;;;2.17;;
56381;SDS011;50261;51.150;4.470;2023-07-13T03:14:32;10.07;;;2.22;;
56381;SDS011;50261;51.150;4.470;2023-07-13T03:16:59;9.60;;;2.15;;
56381;SDS011;50261;51.150;4.470;2023-07-13T03:19:28;10.45;;;2.22;;
56381;SDS011;50261;51.150;4.470;2023-07-13T03:21:54;8.38;;;2.03;;
56381;SDS011;50261;51.150;4.470;2023-07-13T03:24:20;10.20;;;2.03;;
56381;SDS011;50261;51.150;4.470;2023-07-13T03:26:50;8.60;;;2.20;;
56381;SDS011;50261;51.150;4.470;2023-07-13T03:29:17;11.02;;;2.35;;
56381;SDS011;50261;51.150;4.470;2023-07-13T03:31:43;9.80;;;2.33;;
56381;SDS011;50261;51.150;4.470;2023-07-13T03:34:09;9.57;;;2.63;;
56381;SDS011;50261;51.150;4.470;2023-07-13T03:36:36;12.45;;;2.00;;
56381;SDS011;50261;51.150;4.470;2023-07-13T03:39:05;11.57;;;2.70;;
56381;SDS011;50261;51.150;4.470;2023-07-13T03:41:41;8.30;;;2.20;;
56381;SDS011;50261;51.150;4.470;2023-07-13T03:44:07;8.00;;;2.13;;
56381;SDS011;50261;51.150;4.470;2023-07-13T03:46:32;11.85;;;2.63;;
56381;SDS011;50261;51.150;4.470;2023-07-13T03:48:59;8.40;;;2.15;;
56381;SDS011;50261;51.150;4.470;2023-07-13T03:51:24;7.57;;;2.08;;
56381;SDS011;50261;51.150;4.470;2023-07-13T03:53:50;10.77;;;2.90;;
56381;SDS011;50261;51.150;4.470;2023-07-13T03:56:18;7.10;;;2.35;;
56381;SDS011;50261;51.150;4.470;2023-07-13T03:58:45;10.07;;;2.63;;
56381;SDS011;50261;51.150;4.470;2023-07-13T04:01:16;11.07;;;2.60;;
56381;SDS011;50261;51.150;4.470;2023-07-13T04:03:43;9.95;;;2.05;;
56381;SDS011;50261;51.150;4.470;2023-07-13T04:06:13;10.90;;;2.70;;
56381;SDS011;50261;51.150;4.470;2023-07-13T04:08:40;12.50;;;2.75;;
56381;SDS011;50261;51.150;4.470;2023-07-13T04:11:06;9.38;;;2.83;;
56381;SDS011;50261;51.150;4.470;2023-07-13T04:13:32;14.20;;;2.60;;
56381;SDS011;50261;51.150;4.470;2023-07-13T04:15:58;12.23;;;2.60;;
56381;SDS011;50261;51.150;4.470;2023-07-13T04:18:24;11.90;;;2.50;;
56381;SDS011;50261;51.150;4.470;2023-07-13T04:20:49;12.25;;;2.42;;
56381;SDS011;50261;51.150;4.470;2023-07-13T04:23:16;9.77;;;2.60;;
56381;SDS011;50261;51.150;4.470;2023-07-13T04:25:48;9.20;;;2.63;;
56381;SDS011;50261;51.150;4.470;2023-07-13T04:28:15;9.88;;;2.13;;
56381;SDS011;50261;51.150;4.470;2023-07-13T04:30:41;10.15;;;2.28;;
56381;SDS011;50261;51.150;4.470;2023-07-13T04:33:07;11.85;;;2.22;;
56381;SDS011;50261;51.150;4.470;2023-07-13T04:35:34;10.27;;;2.60;;
56381;SDS011;50261;51.150;4.470;2023-07-13T04:38:00;10.10;;;2.85;;
56381;SDS011;50261;51.150;4.470;2023-07-13T04:40:26;10.00;;;1.98;;
56381;SDS011;50261;51.150;4.470;2023-07-13T04:42:52;8.90;;;2.58;;
56381;SDS011;50261;51.150;4.470;2023-07-13T04:45:18;10.88;;;2.75;;
56381;SDS011;50261;51.150;4.470;2023-07-13T04:47:44;16.50;;;3.40;;
56381;SDS011;50261;51.150;4.470;2023-07-13T04:50:11;12.90;;;3.00;;
56381;SDS011;50261;51.150;4.470;2023-07-13T04:52:37;13.48;;;3.20;;
56381;SDS011;50261;51.150;4.470;2023-07-13T04:55:03;10.10;;;2.58;;
56381;SDS011;50261;51.150;4.470;2023-07-13T04:57:29;8.35;;;2.30;;
56381;SDS011;50261;51.150;4.470;2023-07-13T04:59:55;15.75;;;3.08;;
56381;SDS011;50261;51.150;4.470;2023-07-13T05:02:21;10.18;;;3.25;;
56381;SDS011;50261;51.150;4.470;2023-07-13T05:04:47;15.30;;;2.70;;
56381;SDS011;50261;51.150;4.470;2023-07-13T05:07:13;9.23;;;2.88;;
56381;SDS011;50261;51.150;4.470;2023-07-13T05:09:39;9.30;;;2.60;;
56381;SDS011;50261;51.150;4.470;2023-07-13T05:12:06;11.57;;;2.85;;
56381;SDS011;50261;51.150;4.470;2023-07-13T05:14:31;11.50;;;2.58;;
56381;SDS011;50261;51.150;4.470;2023-07-13T05:16:57;11.82;;;2.60;;
56381;SDS011;50261;51.150;4.470;2023-07-13T05:19:23;13.60;;;2.38;;
56381;SDS011;50261;51.150;4.470;2023-07-13T05:21:49;13.80;;;2.92;;
56381;SDS011;50261;51.150;4.470;2023-07-13T05:24:14;9.73;;;2.90;;
56381;SDS011;50261;51.150;4.470;2023-07-13T05:26:40;18.95;;;3.00;;
56381;SDS011;50261;51.150;4.470;2023-07-13T05:29:06;12.43;;;2.63;;
56381;SDS011;50261;51.150;4.470;2023-07-13T05:31:31;12.43;;;2.83;;
56381;SDS011;50261;51.150;4.470;2023-07-13T05:33:57;9.88;;;2.70;;
56381;SDS011;50261;51.150;4.470;2023-07-13T05:36:23;10.40;;;3.05;;
56381;SDS011;50261;51.150;4.470;2023-07-13T05:38:48;12.50;;;2.63;;
56381;SDS011;50261;51.150;4.470;2023-07-13T05:41:14;9.40;;;2.60;;
56381;SDS011;50261;51.150;4.470;2023-07-13T05:43:40;10.30;;;2.97;;
56381;SDS011;50261;51.150;4.470;2023-07-13T05:46:05;12.07;;;3.05;;
56381;SDS011;50261;51.150;4.470;2023-07-13T05:48:31;19.20;;;3.35;;
56381;SDS011;50261;51.150;4.470;2023-07-13T05:50:57;15.60;;;3.45;;
56381;SDS011;50261;51.150;4.470;2023-07-13T05:53:22;8.15;;;2.70;;
56381;SDS011;50261;51.150;4.470;2023-07-13T05:55:48;17.85;;;3.17;;
56381;SDS011;50261;51.150;4.470;2023-07-13T05:58:16;15.23;;;2.67;;
56381;SDS011;50261;51.150;4.470;2023-07-13T06:00:42;11.30;;;2.95;;
56381;SDS011;50261;51.150;4.470;2023-07-13T06:03:08;10.88;;;2.92;;
56381;SDS011;50261;51.150;4.470;2023-07-13T06:05:34;10.27;;;2.63;;
56381;SDS011;50261;51.150;4.470;2023-07-13T06:08:01;15.75;;;4.05;;
56381;SDS011;50261;51.150;4.470;2023-07-13T06:10:27;11.73;;;2.80;;
56381;SDS011;50261;51.150;4.470;2023-07-13T06:12:52;8.65;;;2.65;;
56381;SDS011;50261;51.150;4.470;2023-07-13T06:15:18;17.65;;;3.47;;
56381;SDS011;50261;51.150;4.470;2023-07-13T06:17:43;16.30;;;3.33;;
56381;SDS011;50261;51.150;4.470;2023-07-13T06:20:09;12.88;;;2.70;;
56381;SDS011;50261;51.150;4.470;2023-07-13T06:22:36;12.00;;;2.65;;
56381;SDS011;50261;51.150;4.470;2023-07-13T06:25:02;12.40;;;2.55;;
56381;SDS011;50261;51.150;4.470;2023-07-13T06:27:28;13.55;;;3.15;;
56381;SDS011;50261;51.150;4.470;2023-07-13T06:29:53;9.52;;;2.58;;
56381;SDS011;50261;51.150;4.470;2023-07-13T06:32:19;10.73;;;3.17;;
56381;SDS011;50261;51.150;4.470;2023-07-13T06:34:44;13.18;;;3.42;;
56381;SDS011;50261;51.150;4.470;2023-07-13T06:37:11;7.85;;;3.20;;
56381;SDS011;50261;51.150;4.470;2023-07-13T06:39:36;9.95;;;2.70;;
56381;SDS011;50261;51.150;4.470;2023-07-13T06:42:02;14.35;;;3.15;;
56381;SDS011;50261;51.150;4.470;2023-07-13T06:44:27;12.85;;;3.70;;
56381;SDS011;50261;51.150;4.470;2023-07-13T06:46:53;11.60;;;2.38;;
56381;SDS011;50261;51.150;4.470;2023-07-13T06:49:18;13.80;;;3.17;;
56381;SDS011;50261;51.150;4.470;2023-07-13T06:51:43;13.50;;;2.78;;
56381;SDS011;50261;51.150;4.470;2023-07-13T06:54:09;11.25;;;2.70;;
56381;SDS011;50261;51.150;4.470;2023-07-13T06:56:34;14.38;;;3.28;;
56381;SDS011;50261;51.150;4.470;2023-07-13T06:59:00;13.82;;;3.20;;
56381;SDS011;50261;51.150;4.470;2023-07-13T07:01:25;10.93;;;2.83;;
56381;SDS011;50261;51.150;4.470;2023-07-13T07:03:51;16.67;;;3.25;;
56381;SDS011;50261;51.150;4.470;2023-07-13T07:06:18;13.18;;;3.03;;
56381;SDS011;50261;51.150;4.470;2023-07-13T07:08:44;12.52;;;2.85;;
56381;SDS011;50261;51.150;4.470;2023-07-13T07:11:14;10.85;;;2.85;;
56381;SDS011;50261;51.150;4.470;2023-07-13T07:13:40;9.93;;;2.90;;
56381;SDS011;50261;51.150;4.470;2023-07-13T07:16:06;11.25;;;3.35;;
56381;SDS011;50261;51.150;4.470;2023-07-13T07:18:32;14.43;;;3.00;;
56381;SDS011;50261;51.150;4.470;2023-07-13T07:21:00;13.02;;;2.50;;
56381;SDS011;50261;51.150;4.470;2023-07-13T07:23:26;11.57;;;3.17;;
56381;SDS011;50261;51.150;4.470;2023-07-13T07:25:51;11.70;;;3.15;;
56381;SDS011;50261;51.150;4.470;2023-07-13T07:28:17;11.85;;;3.42;;
56381;SDS011;50261;51.150;4.470;2023-07-13T07:30:46;9.60;;;2.47;;
56381;SDS011;50261;51.150;4.470;2023-07-13T07:33:12;13.98;;;2.70;;
56381;SDS011;50261;51.150;4.470;2023-07-13T07:35:38;16.65;;;3.33;;
56381;SDS011;50261;51.150;4.470;2023-07-13T07:38:04;8.77;;;3.00;;
56381;SDS011;50261;51.150;4.470;2023-07-13T07:40:29;10.90;;;2.95;;
56381;SDS011;50261;51.150;4.470;2023-07-13T07:42:56;15.57;;;3.20;;
56381;SDS011;50261;51.150;4.470;2023-07-13T07:45:22;9.05;;;2.58;;
56381;SDS011;50261;51.150;4.470;2023-07-13T07:47:47;12.77;;;3.03;;
56381;SDS011;50261;51.150;4.470;2023-07-13T07:50:13;11.95;;;3.00;;
56381;SDS011;50261;51.150;4.470;2023-07-13T07:52:39;13.95;;;3.65;;
56381;SDS011;50261;51.150;4.470;2023-07-13T07:55:05;13.57;;;2.70;;
56381;SDS011;50261;51.150;4.470;2023-07-13T07:57:31;11.02;;;2.88;;
56381;SDS011;50261;51.150;4.470;2023-07-13T07:59:57;12.43;;;2.53;;
56381;SDS011;50261;51.150;4.470;2023-07-13T08:02:24;10.00;;;2.63;;
56381;SDS011;50261;51.150;4.470;2023-07-13T08:04:49;11.82;;;3.80;;
56381;SDS011;50261;51.150;4.470;2023-07-13T08:07:15;6.47;;;2.33;;
56381;SDS011;50261;51.150;4.470;2023-07-13T08:09:41;9.98;;;2.58;;
56381;SDS011;50261;51.150;4.470;2023-07-13T08:12:06;8.13;;;2.55;;
56381;SDS011;50261;51.150;4.470;2023-07-13T08:14:32;12.23;;;2.60;;
56381;SDS011;50261;51.150;4.470;2023-07-13T08:16:58;9.73;;;2.40;;
56381;SDS011;50261;51.150;4.470;2023-07-13T08:19:24;10.23;;;2.90;;
56381;SDS011;50261;51.150;4.470;2023-07-13T08:21:49;7.63;;;2.08;;
56381;SDS011;50261;51.150;4.470;2023-07-13T08:24:15;9.20;;;2.50;;
56381;SDS011;50261;51.150;4.470;2023-07-13T08:26:44;8.43;;;2.70;;
56381;SDS011;50261;51.150;4.470;2023-07-13T08:29:09;10.02;;;3.00;;
56381;SDS011;50261;51.150;4.470;2023-07-13T08:31:35;10.35;;;3.00;;
56381;SDS011;50261;51.150;4.470;2023-07-13T08:34:01;8.27;;;2.10;;
56381;SDS011;50261;51.150;4.470;2023-07-13T08:36:26;14.18;;;2.72;;
56381;SDS011;50261;51.150;4.470;2023-07-13T08:38:53;7.05;;;2.20;;
56381;SDS011;50261;51.150;4.470;2023-07-13T08:41:19;4.65;;;2.05;;
56381;SDS011;50261;51.150;4.470;2023-07-13T08:43:47;14.55;;;2.85;;
56381;SDS011;50261;51.150;4.470;2023-07-13T08:46:24;9.93;;;2.15;;
56381;SDS011;50261;51.150;4.470;2023-07-13T08:48:55;5.35;;;1.92;;
56381;SDS011;50261;51.150;4.470;2023-07-13T08:53:52;11.88;;;2.13;;
56381;SDS011;50261;51.150;4.470;2023-07-13T08:56:21;8.23;;;1.95;;
56381;SDS011;50261;51.150;4.470;2023-07-13T08:58:47;7.50;;;2.28;;
56381;SDS011;50261;51.150;4.470;2023-07-13T09:01:20;7.13;;;1.90;;
56381;SDS011;50261;51.150;4.470;2023-07-13T09:06:20;10.75;;;2.15;;
56381;SDS011;50261;51.150;4.470;2023-07-13T09:09:02;7.88;;;2.15;;
56381;SDS011;50261;51.150;4.470;2023-07-13T09:11:38;11.73;;;2.13;;
56381;SDS011;50261;51.150;4.470;2023-07-13T09:14:26;8.63;;;2.05;;
56381;SDS011;50261;51.150;4.470;2023-07-13T09:16:55;9.93;;;2.15;;
56381;SDS011;50261;51.150;4.470;2023-07-13T09:19:26;9.88;;;1.73;;
56381;SDS011;50261;51.150;4.470;2023-07-13T09:21:54;5.82;;;1.60;;
56381;SDS011;50261;51.150;4.470;2023-07-13T09:26:47;7.30;;;2.08;;
56381;SDS011;50261;51.150;4.470;2023-07-13T09:29:15;5.85;;;1.55;;
56381;SDS011;50261;51.150;4.470;2023-07-13T09:31:42;7.30;;;2.47;;
56381;SDS011;50261;51.150;4.470;2023-07-13T09:34:10;10.18;;;2.15;;
56381;SDS011;50261;51.150;4.470;2023-07-13T09:36:36;8.70;;;2.20;;
56381;SDS011;50261;51.150;4.470;2023-07-13T09:39:04;5.43;;;2.00;;
56381;SDS011;50261;51.150;4.470;2023-07-13T09:44:18;6.30;;;1.75;;
56381;SDS011;50261;51.150;4.470;2023-07-13T09:46:53;4.05;;;1.50;;
56381;SDS011;50261;51.150;4.470;2023-07-13T09:49:23;7.18;;;1.90;;
56381;SDS011;50261;51.150;4.470;2023-07-13T09:51:49;8.35;;;1.65;;
56381;SDS011;50261;51.150;4.470;2023-07-13T09:54:23;10.75;;;1.88;;
56381;SDS011;50261;51.150;4.470;2023-07-13T09:56:59;8.75;;;2.10;;
56381;SDS011;50261;51.150;4.470;2023-07-13T09:59:32;7.72;;;1.70;;
56381;SDS011;50261;51.150;4.470;2023-07-13T10:01:59;6.93;;;1.30;;
56381;SDS011;50261;51.150;4.470;2023-07-13T10:04:30;6.38;;;1.50;;
56381;SDS011;50261;51.150;4.470;2023-07-13T10:07:09;8.93;;;1.38;;
56381;SDS011;50261;51.150;4.470;2023-07-13T10:09:37;7.72;;;1.85;;
56381;SDS011;50261;51.150;4.470;2023-07-13T10:12:04;6.40;;;1.50;;
56381;SDS011;50261;51.150;4.470;2023-07-13T10:14:30;6.80;;;1.52;;
56381;SDS011;50261;51.150;4.470;2023-07-13T10:16:59;6.63;;;1.88;;
56381;SDS011;50261;51.150;4.470;2023-07-13T10:19:29;5.75;;;1.75;;
56381;SDS011;50261;51.150;4.470;2023-07-13T10:27:16;5.30;;;1.70;;
56381;SDS011;50261;51.150;4.470;2023-07-13T10:30:01;7.35;;;2.28;;
56381;SDS011;50261;51.150;4.470;2023-07-13T10:32:27;5.47;;;1.45;;
56381;SDS011;50261;51.150;4.470;2023-07-13T10:34:53;6.82;;;1.88;;
56381;SDS011;50261;51.150;4.470;2023-07-13T10:37:31;5.93;;;2.00;;
56381;SDS011;50261;51.150;4.470;2023-07-13T10:39:59;8.18;;;1.80;;
56381;SDS011;50261;51.150;4.470;2023-07-13T10:44:51;4.90;;;1.58;;
56381;SDS011;50261;51.150;4.470;2023-07-13T10:47:17;6.30;;;1.50;;
56381;SDS011;50261;51.150;4.470;2023-07-13T10:49:46;5.70;;;1.50;;
56381;SDS011;50261;51.150;4.470;2023-07-13T10:54:57;5.95;;;1.75;;
56381;SDS011;50261;51.150;4.470;2023-07-13T10:57:25;4.13;;;1.23;;
56381;SDS011;50261;51.150;4.470;2023-07-13T11:05:01;3.10;;;1.13;;
56381;SDS011;50261;51.150;4.470;2023-07-13T11:07:51;5.63;;;1.83;;
56381;SDS011;50261;51.150;4.470;2023-07-13T11:10:45;6.88;;;1.48;;
56381;SDS011;50261;51.150;4.470;2023-07-13T11:13:02;6.88;;;1.67;;
56381;SDS011;50261;51.150;4.470;2023-07-13T11:15:38;4.68;;;1.30;;
56381;SDS011;50261;51.150;4.470;2023-07-13T11:18:12;5.15;;;1.15;;
56381;SDS011;50261;51.150;4.470;2023-07-13T11:20:44;3.45;;;1.23;;
56381;SDS011;50261;51.150;4.470;2023-07-13T11:25:39;3.67;;;1.10;;
56381;SDS011;50261;51.150;4.470;2023-07-13T11:28:06;7.45;;;1.67;;
56381;SDS011;50261;51.150;4.470;2023-07-13T11:30:37;6.88;;;1.30;;
56381;SDS011;50261;51.150;4.470;2023-07-13T11:33:16;8.10;;;1.27;;
56381;SDS011;50261;51.150;4.470;2023-07-13T11:40:55;7.13;;;2.35;;
56381;SDS011;50261;51.150;4.470;2023-07-13T11:43:21;7.47;;;1.98;;
56381;SDS011;50261;51.150;4.470;2023-07-13T11:45:50;3.83;;;1.83;;
56381;SDS011;50261;51.150;4.470;2023-07-13T11:48:20;6.80;;;2.30;;
56381;SDS011;50261;51.150;4.470;2023-07-13T11:51:00;5.38;;;2.33;;
56381;SDS011;50261;51.150;4.470;2023-07-13T11:53:29;7.57;;;3.67;;
56381;SDS011;50261;51.150;4.470;2023-07-13T11:55:55;5.25;;;2.60;;
56381;SDS011;50261;51.150;4.470;2023-07-13T11:58:23;5.43;;;2.50;;
56381;SDS011;50261;51.150;4.470;2023-07-13T12:00:49;6.90;;;2.42;;
56381;SDS011;50261;51.150;4.470;2023-07-13T12:03:18;7.05;;;2.38;;
56381;SDS011;50261;51.150;4.470;2023-07-13T12:06:01;5.43;;;2.28;;
56381;SDS011;50261;51.150;4.470;2023-07-13T12:08:27;5.70;;;2.67;;
56381;SDS011;50261;51.150;4.470;2023-07-13T12:10:58;7.82;;;3.00;;
56381;SDS011;50261;51.150;4.470;2023-07-13T12:13:24;4.70;;;2.40;;
56381;SDS011;50261;51.150;4.470;2023-07-13T12:15:51;6.40;;;2.45;;
56381;SDS011;50261;51.150;4.470;2023-07-13T12:18:20;8.38;;;2.60;;
56381;SDS011;50261;51.150;4.470;2023-07-13T12:20:46;7.40;;;2.55;;
56381;SDS011;50261;51.150;4.470;2023-07-13T12:23:29;6.07;;;2.10;;
56381;SDS011;50261;51.150;4.470;2023-07-13T12:25:55;6.13;;;2.53;;
56381;SDS011;50261;51.150;4.470;2023-07-13T12:28:23;6.68;;;2.63;;
56381;SDS011;50261;51.150;4.470;2023-07-13T12:30:49;6.72;;;2.05;;
56381;SDS011;50261;51.150;4.470;2023-07-13T12:33:15;7.72;;;2.60;;
56381;SDS011;50261;51.150;4.470;2023-07-13T12:35:42;5.18;;;2.05;;
56381;SDS011;50261;51.150;4.470;2023-07-13T12:38:10;6.07;;;2.47;;
56381;SDS011;50261;51.150;4.470;2023-07-13T12:40:36;5.47;;;2.28;;
56381;SDS011;50261;51.150;4.470;2023-07-13T12:43:02;6.43;;;2.42;;
56381;SDS011;50261;51.150;4.470;2023-07-13T12:45:30;5.47;;;2.28;;
56381;SDS011;50261;51.150;4.470;2023-07-13T12:47:57;7.68;;;2.60;;
56381;SDS011;50261;51.150;4.470;2023-07-13T12:50:33;4.15;;;1.38;;
56381;SDS011;50261;51.150;4.470;2023-07-13T12:55:25;3.97;;;1.40;;
56381;SDS011;50261;51.150;4.470;2023-07-13T12:57:55;3.50;;;1.55;;
56381;SDS011;50261;51.150;4.470;2023-07-13T13:00:28;5.80;;;1.73;;
56381;SDS011;50261;51.150;4.470;2023-07-13T13:02:55;6.72;;;1.98;;
56381;SDS011;50261;51.150;4.470;2023-07-13T13:05:21;7.15;;;2.10;;
56381;SDS011;50261;51.150;4.470;2023-07-13T13:07:51;3.70;;;1.65;;
56381;SDS011;50261;51.150;4.470;2023-07-13T13:10:17;3.42;;;1.60;;
56381;SDS011;50261;51.150;4.470;2023-07-13T13:12:43;4.90;;;1.50;;
56381;SDS011;50261;51.150;4.470;2023-07-13T13:15:10;7.05;;;1.95;;
56381;SDS011;50261;51.150;4.470;2023-07-13T13:17:37;6.55;;;1.77;;
56381;SDS011;50261;51.150;4.470;2023-07-13T13:20:16;4.53;;;1.40;;
56381;SDS011;50261;51.150;4.470;2023-07-13T13:22:42;2.67;;;1.20;;
56381;SDS011;50261;51.150;4.470;2023-07-13T13:25:09;4.57;;;1.50;;
56381;SDS011;50261;51.150;4.470;2023-07-13T13:27:36;5.13;;;1.73;;
56381;SDS011;50261;51.150;4.470;2023-07-13T13:30:02;3.72;;;1.60;;
56381;SDS011;50261;51.150;4.470;2023-07-13T13:32:28;4.22;;;1.23;;
56381;SDS011;50261;51.150;4.470;2023-07-13T13:34:53;2.80;;;1.30;;
56381;SDS011;50261;51.150;4.470;2023-07-13T13:37:20;4.22;;;1.30;;
56381;SDS011;50261;51.150;4.470;2023-07-13T13:39:46;3.88;;;1.58;;
56381;SDS011;50261;51.150;4.470;2023-07-13T13:42:12;2.80;;;1.55;;
56381;SDS011;50261;51.150;4.470;2023-07-13T13:44:38;4.32;;;1.67;;
56381;SDS011;50261;51.150;4.470;2023-07-13T13:47:29;6.13;;;1.42;;
56381;SDS011;50261;51.150;4.470;2023-07-13T13:49:52;3.17;;;1.30;;
56381;SDS011;50261;51.150;4.470;2023-07-13T13:52:17;5.63;;;1.77;;
56381;SDS011;50261;51.150;4.470;2023-07-13T13:54:43;4.68;;;1.52;;
56381;SDS011;50261;51.150;4.470;2023-07-13T13:57:10;2.72;;;1.20;;
56381;SDS011;50261;51.150;4.470;2023-07-13T13:59:37;4.25;;;1.80;;
56381;SDS011;50261;51.150;4.470;2023-07-13T14:02:38;2.65;;;1.15;;
56381;SDS011;50261;51.150;4.470;2023-07-13T14:04:59;5.55;;;1.60;;
56381;SDS011;50261;51.150;4.470;2023-07-13T14:07:25;3.60;;;1.40;;
56381;SDS011;50261;51.150;4.470;2023-07-13T14:09:52;4.65;;;1.40;;
56381;SDS011;50261;51.150;4.470;2023-07-13T14:12:18;8.85;;;1.63;;
56381;SDS011;50261;51.150;4.470;2023-07-13T14:14:44;4.97;;;1.50;;
56381;SDS011;50261;51.150;4.470;2023-07-13T14:17:18;3.58;;;1.45;;
56381;SDS011;50261;51.150;4.470;2023-07-13T14:19:47;2.53;;;1.40;;
56381;SDS011;50261;51.150;4.470;2023-07-13T14:22:16;3.13;;;1.58;;
56381;SDS011;50261;51.150;4.470;2023-07-13T14:24:42;5.80;;;1.80;;
56381;SDS011;50261;51.150;4.470;2023-07-13T14:27:08;2.42;;;1.10;;
56381;SDS011;50261;51.150;4.470;2023-07-13T14:29:34;3.38;;;1.38;;
56381;SDS011;50261;51.150;4.470;2023-07-13T14:32:00;4.35;;;1.42;;
56381;SDS011;50261;51.150;4.470;2023-07-13T14:34:26;3.80;;;1.63;;
56381;SDS011;50261;51.150;4.470;2023-07-13T14:36:51;7.28;;;1.40;;
56381;SDS011;50261;51.150;4.470;2023-07-13T14:39:18;3.38;;;1.30;;
56381;SDS011;50261;51.150;4.470;2023-07-13T14:41:44;3.95;;;1.23;;
56381;SDS011;50261;51.150;4.470;2023-07-13T14:44:11;3.40;;;1.60;;
56381;SDS011;50261;51.150;4.470;2023-07-13T14:46:37;4.40;;;1.48;;
56381;SDS011;50261;51.150;4.470;2023-07-13T14:49:04;4.35;;;1.42;;
56381;SDS011;50261;51.150;4.470;2023-07-13T14:51:30;5.00;;;1.50;;
56381;SDS011;50261;51.150;4.470;2023-07-13T14:53:58;3.63;;;1.38;;
56381;SDS011;50261;51.150;4.470;2023-07-13T14:56:24;7.40;;;1.70;;
56381;SDS011;50261;51.150;4.470;2023-07-13T14:58:50;3.92;;;1.20;;
56381;SDS011;50261;51.150;4.470;2023-07-13T15:01:17;4.97;;;1.50;;
56381;SDS011;50261;51.150;4.470;2023-07-13T15:03:43;3.58;;;1.50;;
56381;SDS011;50261;51.150;4.470;2023-07-13T15:06:10;6.40;;;1.73;;
56381;SDS011;50261;51.150;4.470;2023-07-13T15:08:36;2.67;;;1.35;;
56381;SDS011;50261;51.150;4.470;2023-07-13T15:11:03;7.43;;;1.60;;
56381;SDS011;50261;51.150;4.470;2023-07-13T15:13:30;3.45;;;1.23;;
56381;SDS011;50261;51.150;4.470;2023-07-13T15:15:56;4.72;;;1.30;;
56381;SDS011;50261;51.150;4.470;2023-07-13T15:18:22;4.18;;;1.55;;
56381;SDS011;50261;51.150;4.470;2023-07-13T15:20:49;6.15;;;1.60;;
56381;SDS011;50261;51.150;4.470;2023-07-13T15:23:16;5.30;;;1.50;;
56381;SDS011;50261;51.150;4.470;2023-07-13T15:25:43;4.13;;;1.35;;